createdAt,value
2017-05-17T00:00:07.178Z,936.49
2017-05-17T00:01:20.097Z,936.43
2017-05-17T00:02:32.522Z,936.38
2017-05-17T00:03:45.440Z,936.4
2017-05-17T00:04:58.558Z,936.42
2017-05-17T00:06:11.488Z,936.46
2017-05-17T00:07:23.913Z,936.57
2017-05-17T00:08:36.343Z,936.71
2017-05-17T00:09:48.973Z,936.72
2017-05-17T00:11:01.891Z,936.72
2017-05-17T00:12:14.318Z,936.68
2017-05-17T00:13:27.236Z,936.79
2017-05-17T00:14:40.158Z,936.81
2017-05-17T00:15:53.082Z,936.75
2017-05-17T00:17:05.517Z,936.7
2017-05-17T00:18:17.947Z,936.6
2017-05-17T00:19:30.919Z,936.61
2017-05-17T00:20:44.147Z,936.53
2017-05-17T00:21:57.070Z,936.6
2017-05-17T00:23:09.986Z,936.64
2017-05-17T00:24:22.906Z,936.61
2017-05-17T00:25:35.333Z,936.64
2017-05-17T00:26:48.256Z,936.56
2017-05-17T00:28:01.172Z,936.52
2017-05-17T00:29:13.598Z,936.47
2017-05-17T00:30:26.029Z,936.5
2017-05-17T00:31:38.941Z,936.5
2017-05-17T00:32:51.366Z,936.49
2017-05-17T00:34:03.797Z,936.6
2017-05-17T00:35:16.761Z,936.61
2017-05-17T00:36:29.681Z,936.6
2017-05-17T00:37:42.600Z,936.59
2017-05-17T00:38:55.518Z,936.62
2017-05-17T00:40:08.439Z,936.56
2017-05-17T00:41:21.408Z,936.64
2017-05-17T00:44:01.294Z,936.65
2017-05-17T00:45:14.210Z,936.67
2017-05-17T00:46:27.131Z,936.65
2017-05-17T00:47:40.251Z,936.63
2017-05-17T00:48:53.172Z,936.68
2017-05-17T00:50:06.093Z,936.64
2017-05-17T00:51:19.012Z,936.65
2017-05-17T00:52:31.929Z,936.63
2017-05-17T00:53:45.046Z,936.62
2017-05-17T00:54:57.966Z,936.6
2017-05-17T00:56:10.889Z,936.61
2017-05-17T00:57:23.318Z,936.64
2017-05-17T00:58:36.436Z,936.64
2017-05-17T00:59:49.355Z,936.66
2017-05-17T01:01:02.277Z,936.7
2017-05-17T01:02:14.705Z,936.72
2017-05-17T01:03:27.625Z,936.8
2017-05-17T01:04:40.539Z,936.79
2017-05-17T01:05:53.454Z,936.8
2017-05-17T01:07:06.380Z,936.82
2017-05-17T01:08:18.802Z,936.83
2017-05-17T01:09:31.436Z,936.87
2017-05-17T01:10:44.357Z,936.85
2017-05-17T01:11:57.301Z,936.88
2017-05-17T01:13:09.735Z,936.93
2017-05-17T01:14:22.159Z,936.99
2017-05-17T01:15:35.076Z,936.99
2017-05-17T01:16:48.044Z,937.02
2017-05-17T01:18:01.018Z,936.94
2017-05-17T01:19:13.945Z,936.93
2017-05-17T01:20:27.065Z,936.91
2017-05-17T01:21:39.984Z,936.94
2017-05-17T01:22:52.955Z,936.96
2017-05-17T01:24:05.878Z,936.99
2017-05-17T01:25:18.794Z,937.01
2017-05-17T01:26:31.709Z,936.95
2017-05-17T01:27:44.625Z,936.96
2017-05-17T01:28:57.581Z,936.92
2017-05-17T01:30:10.510Z,936.92
2017-05-17T01:31:23.443Z,936.94
2017-05-17T01:32:35.879Z,936.89
2017-05-17T01:33:48.796Z,936.92
2017-05-17T01:35:01.710Z,936.88
2017-05-17T01:36:14.625Z,936.91
2017-05-17T01:37:27.542Z,936.86
2017-05-17T01:38:40.458Z,936.85
2017-05-17T01:39:52.886Z,936.84
2017-05-17T01:41:05.866Z,936.85
2017-05-17T01:42:18.786Z,936.84
2017-05-17T01:43:31.709Z,936.87
2017-05-17T01:44:44.632Z,936.88
2017-05-17T01:45:57.543Z,936.86
2017-05-17T01:47:10.461Z,936.89
2017-05-17T01:48:23.589Z,936.87
2017-05-17T01:49:36.012Z,936.85
2017-05-17T01:50:48.935Z,936.87
2017-05-17T01:52:01.851Z,936.92
2017-05-17T01:53:14.277Z,936.95
2017-05-17T01:54:26.707Z,936.95
2017-05-17T01:55:39.657Z,936.94
2017-05-17T01:56:52.579Z,936.93
2017-05-17T01:58:05.495Z,936.91
2017-05-17T01:59:18.221Z,936.9
2017-05-17T02:00:31.140Z,936.92
2017-05-17T02:01:44.058Z,936.95
2017-05-17T02:02:56.973Z,936.97
2017-05-17T02:04:09.892Z,936.97
2017-05-17T02:05:22.811Z,936.98
2017-05-17T02:06:35.728Z,936.98
2017-05-17T02:07:48.644Z,937.01
2017-05-17T02:09:01.083Z,937.01
2017-05-17T02:10:14.001Z,937.02
2017-05-17T02:11:26.917Z,937.04
2017-05-17T02:12:39.841Z,937.03
2017-05-17T02:13:52.906Z,937.02
2017-05-17T02:15:05.969Z,936.98
2017-05-17T02:16:19.017Z,937
2017-05-17T02:17:32.053Z,937.05
2017-05-17T02:18:45.103Z,937.04
2017-05-17T02:19:58.162Z,937.03
2017-05-17T02:21:11.502Z,937.07
2017-05-17T02:22:24.046Z,937.08
2017-05-17T02:23:37.088Z,937.11
2017-05-17T02:24:50.136Z,937.11
2017-05-17T02:26:03.392Z,937.1
2017-05-17T02:27:15.933Z,937.08
2017-05-17T02:28:29.024Z,937.06
2017-05-17T02:29:42.067Z,937.1
2017-05-17T02:30:55.117Z,937.09
2017-05-17T02:32:08.163Z,937.09
2017-05-17T02:33:20.719Z,937.08
2017-05-17T02:34:33.757Z,937.06
2017-05-17T02:35:46.795Z,937.09
2017-05-17T02:36:59.836Z,937.07
2017-05-17T02:38:12.880Z,937.08
2017-05-17T02:39:25.931Z,937.09
2017-05-17T02:40:38.979Z,937.02
2017-05-17T02:41:52.019Z,937.02
2017-05-17T02:43:05.060Z,937.05
2017-05-17T02:44:18.102Z,937.1
2017-05-17T02:45:31.136Z,937.07
2017-05-17T02:46:44.040Z,937.06
2017-05-17T02:47:56.941Z,937.06
2017-05-17T02:49:09.857Z,937.11
2017-05-17T02:50:22.757Z,937.09
2017-05-17T02:51:35.652Z,937.12
2017-05-17T02:52:48.551Z,937.13
2017-05-17T02:54:01.277Z,937.07
2017-05-17T02:55:14.233Z,937.08
2017-05-17T02:56:27.142Z,937.06
2017-05-17T02:57:40.042Z,937.08
2017-05-17T02:58:53.147Z,937.08
2017-05-17T03:00:06.054Z,937.01
2017-05-17T03:01:18.479Z,937.06
2017-05-17T03:02:31.397Z,937.05
2017-05-17T03:03:44.318Z,936.99
2017-05-17T03:04:57.443Z,937.03
2017-05-17T03:06:10.361Z,937.03
2017-05-17T03:07:23.282Z,937.03
2017-05-17T03:08:35.222Z,937.04
2017-05-17T03:09:48.340Z,937.04
2017-05-17T03:11:01.257Z,937.02
2017-05-17T03:12:14.175Z,937.03
2017-05-17T03:13:27.095Z,937.07
2017-05-17T03:14:40.020Z,937.04
2017-05-17T03:15:52.938Z,937.01
2017-05-17T03:17:05.854Z,936.95
2017-05-17T03:18:17.834Z,936.95
2017-05-17T03:19:30.759Z,936.89
2017-05-17T03:20:43.190Z,936.94
2017-05-17T03:21:56.107Z,936.91
2017-05-17T03:23:09.024Z,936.94
2017-05-17T03:24:21.452Z,936.95
2017-05-17T03:25:34.367Z,936.92
2017-05-17T03:26:47.488Z,936.92
2017-05-17T03:28:00.415Z,936.96
2017-05-17T03:29:12.838Z,936.9
2017-05-17T03:30:25.756Z,936.81
2017-05-17T03:31:38.971Z,936.8
2017-05-17T03:32:51.895Z,936.77
2017-05-17T03:34:04.811Z,936.77
2017-05-17T03:35:17.238Z,936.82
2017-05-17T03:36:30.157Z,936.82
2017-05-17T03:37:57.123Z,936.85
2017-05-17T03:39:10.077Z,936.81
2017-05-17T03:40:22.501Z,936.77
2017-05-17T03:41:35.414Z,936.77
2017-05-17T03:42:48.528Z,936.78
2017-05-17T03:44:01.444Z,936.78
2017-05-17T03:45:14.363Z,936.81
2017-05-17T03:46:27.280Z,936.77
2017-05-17T03:47:39.713Z,936.76
2017-05-17T03:48:52.631Z,936.74
2017-05-17T03:50:05.542Z,936.78
2017-05-17T03:51:17.967Z,936.76
2017-05-17T03:52:30.392Z,936.79
2017-05-17T03:53:43.511Z,936.8
2017-05-17T03:54:56.437Z,936.81
2017-05-17T03:56:09.490Z,936.83
2017-05-17T03:57:22.549Z,936.83
2017-05-17T03:58:35.907Z,936.86
2017-05-17T03:59:48.961Z,936.83
2017-05-17T04:01:02.021Z,936.76
2017-05-17T04:02:15.080Z,936.75
2017-05-17T04:03:28.137Z,936.73
2017-05-17T04:04:40.995Z,936.78
2017-05-17T04:05:54.067Z,936.79
2017-05-17T04:07:07.124Z,936.79
2017-05-17T04:08:20.186Z,936.82
2017-05-17T04:09:33.449Z,936.78
2017-05-17T04:10:46.503Z,936.8
2017-05-17T04:11:59.058Z,936.8
2017-05-17T04:13:11.618Z,936.86
2017-05-17T04:14:24.673Z,936.85
2017-05-17T04:15:37.928Z,936.88
2017-05-17T04:16:50.987Z,936.82
2017-05-17T04:18:04.072Z,936.84
2017-05-17T04:19:17.151Z,936.82
2017-05-17T04:20:30.509Z,936.83
2017-05-17T04:21:43.068Z,936.81
2017-05-17T04:22:56.138Z,936.83
2017-05-17T04:24:09.198Z,936.79
2017-05-17T04:25:22.260Z,936.81
2017-05-17T04:26:49.334Z,936.75
2017-05-17T04:28:01.893Z,936.73
2017-05-17T04:29:14.384Z,936.72
2017-05-17T04:30:26.789Z,936.71
2017-05-17T04:31:39.894Z,936.7
2017-05-17T04:32:52.792Z,936.69
2017-05-17T04:34:05.689Z,936.69
2017-05-17T04:35:18.094Z,936.66
2017-05-17T04:36:30.499Z,936.63
2017-05-17T04:37:43.401Z,936.62
2017-05-17T04:38:55.822Z,936.62
2017-05-17T04:40:08.724Z,936.62
2017-05-17T04:41:21.623Z,936.59
2017-05-17T04:42:34.727Z,936.62
2017-05-17T04:43:47.620Z,936.59
2017-05-17T04:45:00.510Z,936.6
2017-05-17T04:46:13.411Z,936.56
2017-05-17T04:47:25.869Z,936.51
2017-05-17T04:48:38.770Z,936.46
2017-05-17T04:49:51.665Z,936.43
2017-05-17T04:51:04.070Z,936.44
2017-05-17T04:52:16.970Z,936.42
2017-05-17T04:53:30.078Z,936.47
2017-05-17T04:54:42.981Z,936.5
2017-05-17T04:55:55.879Z,936.49
2017-05-17T04:57:08.293Z,936.5
2017-05-17T04:58:21.199Z,936.49
2017-05-17T04:59:34.102Z,936.46
2017-05-17T05:00:46.999Z,936.45
2017-05-17T05:01:59.893Z,936.41
2017-05-17T05:03:12.303Z,936.41
2017-05-17T05:04:25.409Z,936.39
2017-05-17T05:05:37.816Z,936.39
2017-05-17T05:06:50.713Z,936.37
2017-05-17T05:08:03.122Z,936.38
2017-05-17T05:09:15.535Z,936.34
2017-05-17T05:10:28.632Z,936.32
2017-05-17T05:11:41.528Z,936.26
2017-05-17T05:12:54.426Z,936.24
2017-05-17T05:14:07.312Z,936.23
2017-05-17T05:15:20.093Z,936.2
2017-05-17T05:16:32.397Z,936.19
2017-05-17T05:17:45.173Z,936.21
2017-05-17T05:18:57.970Z,936.18
2017-05-17T05:20:10.748Z,936.17
2017-05-17T05:21:23.044Z,936.19
2017-05-17T05:22:35.341Z,936.17
2017-05-17T05:23:48.120Z,936.17
2017-05-17T05:25:00.419Z,936.18
2017-05-17T05:26:13.499Z,936.16
2017-05-17T05:27:26.281Z,936.11
2017-05-17T05:28:38.575Z,936.14
2017-05-17T05:29:51.353Z,936.07
2017-05-17T05:31:04.141Z,936.04
2017-05-17T05:32:17.125Z,935.98
2017-05-17T05:33:29.949Z,935.96
2017-05-17T05:34:41.765Z,935.95
2017-05-17T05:35:54.544Z,935.95
2017-05-17T05:37:07.413Z,935.93
2017-05-17T05:38:19.843Z,935.93
2017-05-17T05:39:32.272Z,935.99
2017-05-17T05:40:45.190Z,935.97
2017-05-17T05:41:58.124Z,935.94
2017-05-17T05:43:11.047Z,935.95
2017-05-17T05:44:23.476Z,935.9
2017-05-17T05:45:36.398Z,935.91
2017-05-17T05:46:49.319Z,935.87
2017-05-17T05:48:02.046Z,935.86
2017-05-17T05:49:14.486Z,935.87
2017-05-17T05:50:26.918Z,935.91
2017-05-17T05:51:39.838Z,935.92
2017-05-17T05:52:52.757Z,935.97
2017-05-17T05:54:05.691Z,935.97
2017-05-17T05:55:18.667Z,935.95
2017-05-17T05:56:31.584Z,935.9
2017-05-17T05:57:44.504Z,935.84
2017-05-17T05:58:57.722Z,935.86
2017-05-17T06:00:10.729Z,935.83
2017-05-17T06:01:23.787Z,935.9
2017-05-17T06:02:36.844Z,935.87
2017-05-17T06:03:49.903Z,935.85
2017-05-17T06:05:03.164Z,935.84
2017-05-17T06:06:15.721Z,935.79
2017-05-17T06:07:28.781Z,935.82
2017-05-17T06:08:41.838Z,935.78
2017-05-17T06:09:54.400Z,935.83
2017-05-17T06:11:06.947Z,935.81
2017-05-17T06:12:19.860Z,935.79
2017-05-17T06:13:32.782Z,935.81
2017-05-17T06:14:45.212Z,935.82
2017-05-17T06:15:58.129Z,935.86
2017-05-17T06:17:11.042Z,935.85
2017-05-17T06:18:23.467Z,935.78
2017-05-17T06:19:36.386Z,935.8
2017-05-17T06:20:49.299Z,935.78
2017-05-17T06:22:02.218Z,935.78
2017-05-17T06:23:14.649Z,935.81
2017-05-17T06:24:27.087Z,935.82
2017-05-17T06:25:40.016Z,935.86
2017-05-17T06:26:53.139Z,935.81
2017-05-17T06:28:06.065Z,935.77
2017-05-17T06:29:18.490Z,935.78
2017-05-17T06:30:31.452Z,935.76
2017-05-17T06:31:44.670Z,935.74
2017-05-17T06:32:57.601Z,935.72
2017-05-17T06:34:10.518Z,935.75
2017-05-17T06:35:23.432Z,935.75
2017-05-17T06:36:35.855Z,935.72
2017-05-17T06:37:48.776Z,935.75
2017-05-17T06:39:01.204Z,935.77
2017-05-17T06:40:14.118Z,935.76
2017-05-17T06:41:26.542Z,935.77
2017-05-17T06:42:39.657Z,935.77
2017-05-17T06:43:52.581Z,935.81
2017-05-17T06:45:05.472Z,935.84
2017-05-17T06:46:17.292Z,935.86
2017-05-17T06:47:30.069Z,935.86
2017-05-17T06:48:43.146Z,935.88
2017-05-17T06:49:55.924Z,935.83
2017-05-17T06:51:08.225Z,935.81
2017-05-17T06:52:20.045Z,935.81
2017-05-17T06:53:33.128Z,935.83
2017-05-17T06:54:45.910Z,935.79
2017-05-17T06:55:58.689Z,935.78
2017-05-17T06:57:11.471Z,935.76
2017-05-17T06:58:23.281Z,935.75
2017-05-17T06:59:35.893Z,935.77
2017-05-17T07:00:48.195Z,935.78
2017-05-17T07:02:00.976Z,935.83
2017-05-17T07:03:13.752Z,935.81
2017-05-17T07:04:26.827Z,935.8
2017-05-17T07:05:39.604Z,935.78
2017-05-17T07:06:51.906Z,935.76
2017-05-17T07:08:04.202Z,935.71
2017-05-17T07:09:16.982Z,935.7
2017-05-17T07:10:30.068Z,935.7
2017-05-17T07:11:42.845Z,935.67
2017-05-17T07:12:55.622Z,935.63
2017-05-17T07:14:08.403Z,935.62
2017-05-17T07:15:21.183Z,935.6
2017-05-17T07:16:33.959Z,935.61
2017-05-17T07:17:46.735Z,935.58
2017-05-17T07:18:59.515Z,935.61
2017-05-17T07:20:11.811Z,935.59
2017-05-17T07:21:24.413Z,935.62
2017-05-17T07:22:36.233Z,935.66
2017-05-17T07:23:49.015Z,935.69
2017-05-17T07:25:01.797Z,935.73
2017-05-17T07:26:14.880Z,935.71
2017-05-17T07:27:27.663Z,935.73
2017-05-17T07:28:40.442Z,935.74
2017-05-17T07:29:53.238Z,935.76
2017-05-17T07:31:06.141Z,935.75
2017-05-17T07:32:19.039Z,935.75
2017-05-17T07:33:31.939Z,935.73
2017-05-17T07:34:44.366Z,935.72
2017-05-17T07:35:57.268Z,935.78
2017-05-17T07:37:10.168Z,935.72
2017-05-17T07:38:23.063Z,935.7
2017-05-17T07:39:35.474Z,935.72
2017-05-17T07:40:48.368Z,935.71
2017-05-17T07:42:00.772Z,935.67
2017-05-17T07:43:13.186Z,935.68
2017-05-17T07:44:26.083Z,935.71
2017-05-17T07:45:38.988Z,935.74
2017-05-17T07:46:51.886Z,935.76
2017-05-17T07:49:31.734Z,935.84
2017-05-17T07:50:44.653Z,935.8
2017-05-17T07:51:57.068Z,935.82
2017-05-17T07:53:09.977Z,935.78
2017-05-17T07:54:22.890Z,935.78
2017-05-17T07:55:35.435Z,935.8
2017-05-17T07:56:47.481Z,935.82
2017-05-17T07:58:00.531Z,935.82
2017-05-17T07:59:13.870Z,935.83
2017-05-17T08:00:26.422Z,935.82
2017-05-17T08:01:39.513Z,935.82
2017-05-17T08:02:52.055Z,935.83
2017-05-17T08:04:04.594Z,935.81
2017-05-17T08:05:17.639Z,935.86
2017-05-17T08:06:30.677Z,935.86
2017-05-17T08:07:43.217Z,935.87
2017-05-17T08:08:55.784Z,935.92
2017-05-17T08:10:08.627Z,935.9
2017-05-17T08:11:21.163Z,935.91
2017-05-17T08:12:34.202Z,935.91
2017-05-17T08:13:47.247Z,935.9
2017-05-17T08:14:59.998Z,935.86
2017-05-17T08:16:13.038Z,935.88
2017-05-17T08:17:26.079Z,935.88
2017-05-17T08:18:39.121Z,935.84
2017-05-17T08:19:52.167Z,935.81
2017-05-17T08:21:05.424Z,935.84
2017-05-17T08:22:17.970Z,935.82
2017-05-17T08:23:30.015Z,935.8
2017-05-17T08:24:43.070Z,935.79
2017-05-17T08:25:56.121Z,935.76
2017-05-17T08:27:08.661Z,935.77
2017-05-17T08:28:21.697Z,935.76
2017-05-17T08:29:34.737Z,935.75
2017-05-17T08:30:47.819Z,935.76
2017-05-17T08:32:00.872Z,935.73
2017-05-17T08:33:13.913Z,935.76
2017-05-17T08:34:25.957Z,935.75
2017-05-17T08:35:38.995Z,935.76
2017-05-17T08:36:52.240Z,935.76
2017-05-17T08:38:05.280Z,935.87
2017-05-17T08:39:18.332Z,935.95
2017-05-17T08:40:30.902Z,935.98
2017-05-17T08:41:43.943Z,936
2017-05-17T08:42:57.283Z,936.03
2017-05-17T08:44:10.331Z,935.99
2017-05-17T08:45:23.381Z,936
2017-05-17T08:46:36.419Z,936
2017-05-17T08:47:48.955Z,936.04
2017-05-17T08:49:01.996Z,936.04
2017-05-17T08:50:14.587Z,936.01
2017-05-17T08:51:27.634Z,936.05
2017-05-17T08:52:40.673Z,936.03
2017-05-17T08:53:53.217Z,936.06
2017-05-17T08:55:05.764Z,936.04
2017-05-17T08:56:17.806Z,936.04
2017-05-17T08:57:30.845Z,936.05
2017-05-17T08:58:44.189Z,936.06
2017-05-17T08:59:56.238Z,936.08
2017-05-17T09:01:08.284Z,936.12
2017-05-17T09:02:21.313Z,936.12
2017-05-17T09:03:34.213Z,936.15
2017-05-17T09:04:47.412Z,936.16
2017-05-17T09:06:00.311Z,936.12
2017-05-17T09:07:12.229Z,936.17
2017-05-17T09:08:25.129Z,936.22
2017-05-17T09:09:38.231Z,936.28
2017-05-17T09:10:51.133Z,936.34
2017-05-17T09:12:04.034Z,936.32
2017-05-17T09:13:16.969Z,936.32
2017-05-17T09:14:29.870Z,936.3
2017-05-17T09:15:43.078Z,936.34
2017-05-17T09:16:55.985Z,936.3
2017-05-17T09:18:08.396Z,936.3
2017-05-17T09:19:20.805Z,936.31
2017-05-17T09:20:33.913Z,936.31
2017-05-17T09:21:46.320Z,936.3
2017-05-17T09:22:59.281Z,936.31
2017-05-17T09:24:11.688Z,936.29
2017-05-17T09:25:23.609Z,936.36
2017-05-17T09:26:36.806Z,936.34
2017-05-17T09:27:49.215Z,936.38
2017-05-17T09:29:02.114Z,936.37
2017-05-17T09:30:15.014Z,936.41
2017-05-17T09:31:28.211Z,936.37
2017-05-17T09:32:41.110Z,936.35
2017-05-17T09:33:53.517Z,936.35
2017-05-17T09:35:06.424Z,936.39
2017-05-17T09:36:19.326Z,936.41
2017-05-17T09:37:32.426Z,936.38
2017-05-17T09:38:44.831Z,936.41
2017-05-17T09:39:57.733Z,936.4
2017-05-17T09:41:10.147Z,936.39
2017-05-17T09:42:23.248Z,936.39
2017-05-17T09:43:36.148Z,936.38
2017-05-17T09:44:49.050Z,936.32
2017-05-17T09:46:01.975Z,936.31
2017-05-17T09:47:14.400Z,936.33
2017-05-17T09:48:27.531Z,936.36
2017-05-17T09:49:40.445Z,936.44
2017-05-17T09:50:53.367Z,936.46
2017-05-17T09:52:06.285Z,936.49
2017-05-17T09:53:18.223Z,936.53
2017-05-17T09:54:31.142Z,936.58
2017-05-17T09:55:44.062Z,936.57
2017-05-17T09:56:56.486Z,936.57
2017-05-17T09:58:09.457Z,936.6
2017-05-17T09:59:21.888Z,936.6
2017-05-17T10:00:34.806Z,936.63
2017-05-17T10:01:46.737Z,936.66
2017-05-17T10:02:59.657Z,936.62
2017-05-17T10:04:12.769Z,936.6
2017-05-17T10:05:25.201Z,936.52
2017-05-17T10:06:37.630Z,936.49
2017-05-17T10:07:50.060Z,936.48
2017-05-17T10:09:02.985Z,936.53
2017-05-17T10:10:16.113Z,936.58
2017-05-17T10:11:29.048Z,936.58
2017-05-17T10:12:41.550Z,936.64
2017-05-17T10:13:54.061Z,936.6
2017-05-17T10:15:06.560Z,936.57
2017-05-17T10:16:19.559Z,936.58
2017-05-17T10:17:32.556Z,936.58
2017-05-17T10:18:45.086Z,936.6
2017-05-17T10:19:58.094Z,936.59
2017-05-17T10:21:11.292Z,936.57
2017-05-17T10:22:23.793Z,936.59
2017-05-17T10:23:36.790Z,936.59
2017-05-17T10:24:49.288Z,936.56
2017-05-17T10:26:01.792Z,936.6
2017-05-17T10:27:14.298Z,936.58
2017-05-17T10:28:26.805Z,936.63
2017-05-17T10:29:39.813Z,936.68
2017-05-17T10:30:52.318Z,936.69
2017-05-17T10:32:05.315Z,936.72
2017-05-17T10:33:18.325Z,936.73
2017-05-17T10:34:31.326Z,936.8
2017-05-17T10:35:44.335Z,936.81
2017-05-17T10:36:57.635Z,936.82
2017-05-17T10:38:10.630Z,936.84
2017-05-17T10:39:23.136Z,936.77
2017-05-17T10:40:36.134Z,936.72
2017-05-17T10:41:48.633Z,936.73
2017-05-17T10:43:01.131Z,936.71
2017-05-17T10:44:14.374Z,936.74
2017-05-17T10:45:27.377Z,936.74
2017-05-17T10:46:40.375Z,936.74
2017-05-17T10:47:52.510Z,936.82
2017-05-17T10:49:05.427Z,936.86
2017-05-17T10:50:18.347Z,936.84
2017-05-17T10:51:30.773Z,936.87
2017-05-17T10:52:43.690Z,936.89
2017-05-17T10:53:56.807Z,936.87
2017-05-17T10:55:09.727Z,936.82
2017-05-17T10:56:22.644Z,936.8
2017-05-17T10:57:35.562Z,936.79
2017-05-17T10:58:48.682Z,936.77
2017-05-17T11:00:01.111Z,936.78
2017-05-17T11:01:14.031Z,936.76
2017-05-17T11:02:26.954Z,936.79
2017-05-17T11:03:39.378Z,936.75
2017-05-17T11:04:52.007Z,936.82
2017-05-17T11:06:04.978Z,936.86
2017-05-17T11:07:17.404Z,936.85
2017-05-17T11:08:30.328Z,936.88
2017-05-17T11:09:43.254Z,936.9
2017-05-17T11:10:56.257Z,936.95
2017-05-17T11:12:09.175Z,936.93
2017-05-17T11:13:21.607Z,937
2017-05-17T11:14:34.506Z,937.04
2017-05-17T11:16:01.358Z,937.01
2017-05-17T11:17:13.676Z,937.06
2017-05-17T11:18:26.458Z,937.06
2017-05-17T11:19:37.797Z,937.08
2017-05-17T11:20:50.577Z,937.07
2017-05-17T11:22:02.875Z,937.1
2017-05-17T11:23:14.690Z,937.12
2017-05-17T11:24:26.989Z,937.16
2017-05-17T11:25:39.771Z,937.2
2017-05-17T11:26:52.072Z,937.23
2017-05-17T11:28:04.849Z,937.21
2017-05-17T11:29:16.672Z,937.2
2017-05-17T11:30:29.454Z,937.2
2017-05-17T11:31:42.444Z,937.21
2017-05-17T11:32:55.220Z,937.23
2017-05-17T11:34:07.519Z,937.29
2017-05-17T11:35:19.826Z,937.27
2017-05-17T11:36:31.643Z,937.24
2017-05-17T11:37:43.946Z,937.29
2017-05-17T11:38:56.258Z,937.21
2017-05-17T11:40:08.566Z,937.22
2017-05-17T11:41:20.864Z,937.24
2017-05-17T11:42:33.943Z,937.26
2017-05-17T11:43:46.243Z,937.27
2017-05-17T11:44:57.580Z,937.25
2017-05-17T11:46:09.877Z,937.28
2017-05-17T11:47:22.477Z,937.32
2017-05-17T11:48:34.296Z,937.31
2017-05-17T11:49:46.599Z,937.39
2017-05-17T11:50:59.585Z,937.37
2017-05-17T11:52:11.402Z,937.38
2017-05-17T11:53:24.197Z,937.42
2017-05-17T11:54:36.981Z,937.44
2017-05-17T11:55:48.799Z,937.45
2017-05-17T11:57:01.577Z,937.45
2017-05-17T11:58:13.881Z,937.51
2017-05-17T11:59:40.276Z,937.52
2017-05-17T12:00:53.201Z,937.48
2017-05-17T12:02:06.121Z,937.5
2017-05-17T12:03:18.546Z,937.54
2017-05-17T12:04:31.669Z,937.6
2017-05-17T12:05:43.606Z,937.61
2017-05-17T12:06:56.523Z,937.62
2017-05-17T12:08:09.448Z,937.63
2017-05-17T12:10:48.934Z,937.6
2017-05-17T12:12:01.363Z,937.67
2017-05-17T12:13:14.285Z,937.63
2017-05-17T12:14:26.726Z,937.65
2017-05-17T12:15:38.674Z,937.66
2017-05-17T12:16:51.587Z,937.65
2017-05-17T12:18:04.063Z,937.67
2017-05-17T12:19:16.976Z,937.69
2017-05-17T12:20:30.207Z,937.68
2017-05-17T12:21:43.129Z,937.73
2017-05-17T12:22:55.559Z,937.7
2017-05-17T12:24:07.502Z,937.74
2017-05-17T12:25:20.419Z,937.73
2017-05-17T12:26:33.344Z,937.73
2017-05-17T12:27:45.768Z,937.74
2017-05-17T12:28:57.709Z,937.79
2017-05-17T12:30:10.649Z,937.78
2017-05-17T12:31:23.953Z,937.81
2017-05-17T12:32:36.462Z,937.81
2017-05-17T12:33:48.968Z,937.83
2017-05-17T12:35:00.976Z,937.81
2017-05-17T12:36:13.781Z,937.8
2017-05-17T12:37:26.784Z,937.83
2017-05-17T12:38:39.296Z,937.82
2017-05-17T12:39:52.298Z,937.83
2017-05-17T12:41:03.881Z,937.85
2017-05-17T12:42:16.382Z,937.84
2017-05-17T12:43:28.889Z,937.81
2017-05-17T12:44:41.892Z,937.83
2017-05-17T12:45:54.891Z,937.85
2017-05-17T12:47:08.086Z,937.78
2017-05-17T12:48:20.095Z,937.74
2017-05-17T12:49:33.104Z,937.75
2017-05-17T12:50:46.109Z,937.71
2017-05-17T12:51:58.117Z,937.75
2017-05-17T12:53:11.314Z,937.72
2017-05-17T12:54:24.315Z,937.75
2017-05-17T12:55:37.327Z,937.73
2017-05-17T12:56:49.834Z,937.76
2017-05-17T12:58:02.838Z,937.78
2017-05-17T12:59:15.843Z,937.79
2017-05-17T13:00:28.845Z,937.78
2017-05-17T13:01:41.840Z,937.77
2017-05-17T13:02:54.838Z,937.78
2017-05-17T13:04:06.844Z,937.8
2017-05-17T13:05:19.851Z,937.8
2017-05-17T13:06:32.850Z,937.77
2017-05-17T13:07:45.849Z,937.81
2017-05-17T13:08:58.671Z,937.8
2017-05-17T13:10:11.176Z,937.79
2017-05-17T13:11:24.170Z,937.79
2017-05-17T13:12:37.174Z,937.78
2017-05-17T13:13:49.679Z,937.81
2017-05-17T13:15:02.181Z,937.79
2017-05-17T13:16:15.184Z,937.76
2017-05-17T13:17:27.684Z,937.74
2017-05-17T13:18:40.195Z,937.7
2017-05-17T13:19:53.504Z,937.7
2017-05-17T13:21:06.505Z,937.7
2017-05-17T13:22:19.012Z,937.7
2017-05-17T13:23:32.008Z,937.67
2017-05-17T13:24:45.012Z,937.71
2017-05-17T13:25:57.514Z,937.66
2017-05-17T13:27:10.019Z,937.66
2017-05-17T13:28:23.017Z,937.65
2017-05-17T13:29:36.013Z,937.66
2017-05-17T13:30:49.301Z,937.66
2017-05-17T13:32:02.281Z,937.64
2017-05-17T13:33:14.779Z,937.64
2017-05-17T13:34:26.770Z,937.65
2017-05-17T13:35:39.751Z,937.64
2017-05-17T13:36:52.934Z,937.6
2017-05-17T13:38:04.921Z,937.62
2017-05-17T13:39:17.827Z,937.57
2017-05-17T13:40:30.244Z,937.59
2017-05-17T13:41:43.448Z,937.54
2017-05-17T13:42:56.459Z,937.51
2017-05-17T13:44:09.366Z,937.5
2017-05-17T13:45:21.782Z,937.5
2017-05-17T13:46:34.685Z,937.44
2017-05-17T13:47:47.586Z,937.46
2017-05-17T13:49:00.494Z,937.41
2017-05-17T13:50:13.434Z,937.37
2017-05-17T13:51:25.843Z,937.38
2017-05-17T13:52:38.970Z,937.37
2017-05-17T13:53:51.873Z,937.31
2017-05-17T13:55:04.851Z,937.36
2017-05-17T13:56:17.262Z,937.3
2017-05-17T13:57:30.156Z,937.35
2017-05-17T13:58:43.073Z,937.34
2017-05-17T13:59:55.982Z,937.29
2017-05-17T14:01:08.401Z,937.27
2017-05-17T14:02:20.321Z,937.26
2017-05-17T14:03:32.732Z,937.25
2017-05-17T14:04:45.641Z,937.25
2017-05-17T14:05:58.541Z,937.17
2017-05-17T14:07:11.451Z,937.08
2017-05-17T14:08:24.366Z,937.1
2017-05-17T14:09:37.473Z,937.13
2017-05-17T14:10:50.374Z,937.1
2017-05-17T14:12:03.273Z,937.11
2017-05-17T14:13:15.741Z,937
2017-05-17T14:14:28.648Z,936.99
2017-05-17T14:15:41.568Z,936.96
2017-05-17T14:16:54.486Z,936.94
2017-05-17T14:18:07.404Z,936.93
2017-05-17T14:19:20.326Z,936.9
2017-05-17T14:20:33.448Z,936.94
2017-05-17T14:21:45.876Z,936.95
2017-05-17T14:22:57.817Z,936.91
2017-05-17T14:24:10.256Z,936.91
2017-05-17T14:25:22.201Z,936.83
2017-05-17T14:26:35.115Z,936.87
2017-05-17T14:27:47.543Z,936.84
2017-05-17T14:29:00.483Z,936.82
2017-05-17T14:30:13.404Z,936.87
2017-05-17T14:31:26.328Z,936.85
2017-05-17T14:32:37.781Z,936.79
2017-05-17T14:33:50.707Z,936.81
2017-05-17T14:35:03.134Z,936.77
2017-05-17T14:36:15.566Z,936.71
2017-05-17T14:37:28.486Z,936.69
2017-05-17T14:38:40.917Z,936.7
2017-05-17T14:39:53.848Z,936.62
2017-05-17T14:41:06.768Z,936.61
2017-05-17T14:42:19.684Z,936.61
2017-05-17T14:43:32.801Z,936.58
2017-05-17T14:44:45.735Z,936.61
2017-05-17T14:45:58.171Z,936.62
2017-05-17T14:47:10.607Z,936.6
2017-05-17T14:48:22.540Z,936.57
2017-05-17T14:49:35.474Z,936.53
2017-05-17T14:50:48.398Z,936.52
2017-05-17T14:52:01.324Z,936.5
2017-05-17T14:53:14.252Z,936.48
2017-05-17T14:54:26.192Z,936.47
2017-05-17T14:55:38.629Z,936.49
2017-05-17T14:56:51.558Z,936.44
2017-05-17T14:58:03.988Z,936.42
2017-05-17T14:59:16.907Z,936.4
2017-05-17T15:00:29.813Z,936.39
2017-05-17T15:01:42.714Z,936.35
2017-05-17T15:02:55.613Z,936.31
2017-05-17T15:04:08.025Z,936.27
2017-05-17T15:05:20.926Z,936.28
2017-05-17T15:06:33.333Z,936.3
2017-05-17T15:07:46.230Z,936.26
2017-05-17T15:08:59.137Z,936.27
2017-05-17T15:10:12.387Z,936.21
2017-05-17T15:11:24.797Z,936.2
2017-05-17T15:12:37.703Z,936.16
2017-05-17T15:13:50.609Z,936.11
2017-05-17T15:15:03.022Z,936.16
2017-05-17T15:16:15.431Z,936.11